createdAt,value
2019-02-22T00:01:05.233Z,102013.00
2019-02-22T00:03:38.919Z,101999.00
2019-02-22T00:06:13.671Z,102015.00
2019-02-22T00:08:45.264Z,102024.00
2019-02-22T00:11:18.713Z,102028.00
2019-02-22T00:13:50.187Z,102031.00
2019-02-22T00:16:27.444Z,102037.00
2019-02-22T00:18:59.065Z,102039.00
2019-02-22T00:21:30.500Z,102037.00
2019-02-22T00:24:02.080Z,102033.00
2019-02-22T00:26:33.544Z,102035.00
2019-02-22T00:29:05.174Z,102036.00
2019-02-22T00:31:45.458Z,102040.00
2019-02-22T00:34:17.211Z,102047.00
2019-02-22T00:36:48.731Z,102049.00
2019-02-22T00:39:20.488Z,102049.00
2019-02-22T00:41:51.990Z,102056.00
2019-02-22T00:44:24.583Z,102065.00
2019-02-22T00:46:56.148Z,102064.00
2019-02-22T00:49:27.954Z,102063.00
2019-02-22T00:52:32.928Z,102073.00
2019-02-22T00:55:11.852Z,102083.00
2019-02-22T00:57:45.577Z,102066.00
2019-02-22T01:00:17.191Z,102089.00
2019-02-22T01:02:48.642Z,102086.00
2019-02-22T01:05:20.207Z,102097.00
2019-02-22T01:07:51.771Z,102095.00
2019-02-22T01:10:30.734Z,102103.00
2019-02-22T01:12:56.485Z,102112.00
2019-02-22T01:15:28.060Z,102125.00
2019-02-22T01:18:02.550Z,102126.00
2019-02-22T01:20:32.831Z,102126.00
2019-02-22T01:23:04.378Z,102118.00
2019-02-22T01:25:35.884Z,102122.00
2019-02-22T01:28:07.339Z,102125.00
2019-02-22T01:30:38.802Z,102137.00
2019-02-22T01:33:10.266Z,102130.00
2019-02-22T01:35:41.795Z,102129.00
2019-02-22T01:38:13.247Z,102145.00
2019-02-22T01:40:44.713Z,102154.00
2019-02-22T01:43:16.140Z,102152.00
2019-02-22T01:45:47.603Z,102156.00
2019-02-22T01:48:19.349Z,102155.00
2019-02-22T01:50:50.829Z,102162.00
2019-02-22T01:53:22.296Z,102162.00
2019-02-22T01:55:53.758Z,102166.00
2019-02-22T01:58:25.198Z,102165.00
2019-02-22T02:00:56.644Z,102165.00
2019-02-22T02:03:29.214Z,102171.00
2019-02-22T02:06:00.708Z,102173.00
2019-02-22T02:08:32.149Z,102191.00
2019-02-22T02:11:03.805Z,102186.00
2019-02-22T02:13:35.324Z,102202.00
2019-02-22T02:16:07.856Z,102208.00
2019-02-22T02:18:39.398Z,102201.00
2019-02-22T02:21:10.851Z,102205.00
2019-02-22T02:23:42.289Z,102201.00
2019-02-22T02:26:13.795Z,102195.00
2019-02-22T02:28:45.254Z,102198.00
2019-02-22T02:31:37.145Z,102199.00
2019-02-22T02:34:08.654Z,102201.00
2019-02-22T02:36:40.694Z,102200.00
2019-02-22T02:39:12.215Z,102221.00
2019-02-22T02:41:44.175Z,102218.00
2019-02-22T02:44:15.626Z,102216.00
2019-02-22T02:46:47.130Z,102215.00
2019-02-22T02:49:18.593Z,102224.00
2019-02-22T02:51:50.075Z,102222.00
2019-02-22T02:54:21.517Z,102235.00
2019-02-22T02:56:53.010Z,102237.00
2019-02-22T02:59:24.435Z,102233.00
2019-02-22T03:01:55.993Z,102237.00
2019-02-22T03:04:27.433Z,102234.00
2019-02-22T03:07:12.495Z,102247.00
2019-02-22T03:09:43.915Z,102255.00
2019-02-22T03:12:15.488Z,102261.00
2019-02-22T03:14:47.018Z,102259.00
2019-02-22T03:17:18.663Z,102261.00
2019-02-22T03:19:50.148Z,102265.00
2019-02-22T03:22:21.643Z,102256.00
2019-02-22T03:24:53.742Z,102244.00
2019-02-22T03:27:25.352Z,102266.00
2019-02-22T03:29:56.809Z,102258.00
2019-02-22T03:32:28.291Z,102266.00
2019-02-22T03:34:59.711Z,102272.00
2019-02-22T03:37:31.216Z,102278.00
2019-02-22T03:40:03.634Z,102282.00
2019-02-22T03:42:35.119Z,102287.00
2019-02-22T03:45:06.859Z,102284.00
2019-02-22T03:47:38.298Z,102296.00
2019-02-22T03:50:10.043Z,102296.00
2019-02-22T03:52:51.383Z,102297.00
2019-02-22T03:55:23.718Z,102314.00
2019-02-22T03:57:55.291Z,102319.00
2019-02-22T04:00:26.764Z,102319.00
2019-02-22T04:02:58.288Z,102328.00
2019-02-22T04:05:31.337Z,102328.00
2019-02-22T04:08:02.822Z,102334.00
2019-02-22T04:10:34.295Z,102345.00
2019-02-22T04:13:05.960Z,102360.00
2019-02-22T04:15:37.433Z,102357.00
2019-02-22T04:18:13.199Z,102362.00
2019-02-22T04:20:45.140Z,102371.00
2019-02-22T04:23:22.581Z,102376.00
2019-02-22T04:25:54.373Z,102378.00
2019-02-22T04:28:25.865Z,102394.00
2019-02-22T04:30:57.362Z,102395.00
2019-02-22T04:33:28.850Z,102402.00
2019-02-22T04:36:00.284Z,102407.00
2019-02-22T04:38:31.787Z,102412.00
2019-02-22T04:41:03.405Z,102413.00
2019-02-22T04:43:34.925Z,102410.00
2019-02-22T04:46:06.385Z,102418.00
2019-02-22T04:48:37.880Z,102423.00
2019-02-22T04:51:09.295Z,102429.00
2019-02-22T04:53:40.748Z,102435.00
2019-02-22T04:56:12.168Z,102439.00
2019-02-22T04:58:43.649Z,102444.00
2019-02-22T05:01:15.126Z,102444.00
2019-02-22T05:03:46.620Z,102455.00
2019-02-22T05:06:18.060Z,102459.00
2019-02-22T05:08:49.515Z,102458.00
2019-02-22T05:11:20.975Z,102465.00
2019-02-22T05:13:52.455Z,102471.00
2019-02-22T05:16:23.902Z,102475.00
2019-02-22T05:18:55.359Z,102486.00
2019-02-22T05:21:26.864Z,102495.00
2019-02-22T05:24:02.560Z,102494.00
2019-02-22T05:26:34.083Z,102494.00
2019-02-22T05:29:07.149Z,102494.00
2019-02-22T05:31:38.877Z,102508.00
2019-02-22T05:34:10.352Z,102512.00
2019-02-22T05:36:44.164Z,102503.00
2019-02-22T05:39:19.017Z,102508.00
2019-02-22T05:41:48.186Z,102516.00
2019-02-22T05:44:19.658Z,102519.00
2019-02-22T05:46:59.882Z,102514.00
2019-02-22T05:49:24.290Z,102531.00
2019-02-22T05:51:55.705Z,102531.00
2019-02-22T05:54:27.289Z,102534.00
2019-02-22T05:56:59.434Z,102548.00
2019-02-22T05:59:31.817Z,102550.00
2019-02-22T06:02:04.894Z,102562.00
2019-02-22T06:04:37.471Z,102568.00
2019-02-22T06:07:08.964Z,102557.00
2019-02-22T06:09:40.502Z,102569.00
2019-02-22T06:12:12.191Z,102576.00
2019-02-22T06:14:43.984Z,102581.00
2019-02-22T06:17:15.553Z,102586.00
2019-02-22T06:19:49.432Z,102584.00
2019-02-22T06:22:29.108Z,102598.00
2019-02-22T06:24:54.211Z,102600.00
2019-02-22T06:27:26.072Z,102601.00
2019-02-22T06:29:57.591Z,102610.00
2019-02-22T06:32:29.047Z,102617.00
2019-02-22T06:35:00.774Z,102621.00
2019-02-22T06:37:32.455Z,102634.00
2019-02-22T06:40:04.559Z,102635.00
2019-02-22T06:42:45.337Z,102652.00
2019-02-22T06:45:09.584Z,102661.00
2019-02-22T06:47:42.283Z,102683.00
2019-02-22T06:50:13.871Z,102675.00
2019-02-22T06:52:45.320Z,102676.00
2019-02-22T06:55:17.028Z,102683.00
2019-02-22T06:57:52.232Z,102685.00
2019-02-22T07:00:23.934Z,102687.00
2019-02-22T07:02:55.487Z,102693.00
2019-02-22T07:05:26.992Z,102694.00
2019-02-22T07:07:58.538Z,102708.00
2019-02-22T07:10:31.648Z,102726.00
2019-02-22T07:13:06.760Z,102724.00
2019-02-22T07:15:38.250Z,102743.00
2019-02-22T07:18:09.745Z,102740.00
2019-02-22T07:20:41.397Z,102744.00
2019-02-22T07:23:12.926Z,102744.00
2019-02-22T07:25:45.460Z,102754.00
2019-02-22T07:28:16.918Z,102753.00
2019-02-22T07:30:48.370Z,102761.00
2019-02-22T07:33:19.855Z,102767.00
2019-02-22T07:35:51.307Z,102768.00
2019-02-22T07:38:25.698Z,102786.00
2019-02-22T07:40:57.293Z,102792.00
2019-02-22T07:43:32.367Z,102794.00
2019-02-22T07:46:07.023Z,102798.00
2019-02-22T07:48:40.412Z,102810.00
2019-02-22T07:51:26.592Z,102813.00
2019-02-22T07:53:59.191Z,102819.00
2019-02-22T07:56:30.675Z,102827.00
2019-02-22T07:59:03.183Z,102824.00
2019-02-22T08:01:46.615Z,102836.00
2019-02-22T08:04:08.153Z,102844.00
2019-02-22T08:06:42.346Z,102845.00
2019-02-22T08:09:13.867Z,102847.00
2019-02-22T08:11:47.416Z,102858.00
2019-02-22T08:14:18.643Z,102865.00
2019-02-22T08:16:50.511Z,102870.00
2019-02-22T08:19:30.711Z,102869.00
2019-02-22T08:22:04.310Z,102875.00
2019-02-22T08:24:36.231Z,102879.00
2019-02-22T08:27:13.731Z,102890.00
2019-02-22T08:29:50.011Z,102888.00
2019-02-22T08:32:21.832Z,102895.00
2019-02-22T08:34:57.823Z,102884.00
2019-02-22T08:38:02.806Z,102906.00
2019-02-22T08:40:37.305Z,102910.00
2019-02-22T08:43:08.989Z,102925.00
2019-02-22T08:45:40.741Z,102921.00
2019-02-22T08:48:12.534Z,102932.00
2019-02-22T08:50:44.041Z,102944.00
2019-02-22T08:53:15.761Z,102930.00
2019-02-22T08:55:49.087Z,102941.00
2019-02-22T08:58:21.991Z,102944.00
2019-02-22T09:01:17.430Z,102951.00
2019-02-22T09:03:54.827Z,102963.00
2019-02-22T09:06:26.491Z,102959.00
2019-02-22T09:08:57.986Z,102968.00
2019-02-22T09:11:29.528Z,102960.00
2019-02-22T09:14:00.999Z,102973.00
2019-02-22T09:16:33.529Z,102973.00
2019-02-22T09:19:05.083Z,102985.00
2019-02-22T09:21:39.527Z,102986.00
2019-02-22T09:24:11.750Z,102996.00
2019-02-22T09:26:46.219Z,102997.00
2019-02-22T09:29:17.979Z,103002.00
2019-02-22T09:31:49.493Z,103007.00
2019-02-22T09:34:30.673Z,103015.00
2019-02-22T09:37:07.749Z,103016.00
2019-02-22T09:39:53.199Z,103024.00
2019-02-22T09:42:27.555Z,103026.00
2019-02-22T09:45:12.432Z,103020.00
2019-02-22T09:47:46.563Z,103040.00
2019-02-22T09:50:18.381Z,103034.00
2019-02-22T09:52:49.882Z,103037.00
2019-02-22T09:55:21.587Z,103033.00
2019-02-22T09:57:54.357Z,103047.00
2019-02-22T10:00:25.894Z,103046.00
2019-02-22T10:03:01.990Z,103042.00
2019-02-22T10:05:33.656Z,103040.00
2019-02-22T10:08:05.301Z,103043.00
2019-02-22T10:10:36.921Z,103053.00
2019-02-22T10:13:08.379Z,103053.00
2019-02-22T10:15:39.932Z,103060.00
2019-02-22T10:18:11.620Z,103071.00
2019-02-22T10:20:43.122Z,103072.00
2019-02-22T10:23:14.590Z,103077.00
2019-02-22T10:25:46.122Z,103079.00
2019-02-22T10:28:18.255Z,103061.00
2019-02-22T10:30:49.945Z,103068.00
2019-02-22T10:33:22.612Z,103069.00
2019-02-22T10:35:54.165Z,103073.00
2019-02-22T10:38:25.650Z,103082.00
2019-02-22T10:40:57.502Z,103073.00
2019-02-22T10:43:29.270Z,103077.00
2019-02-22T10:46:02.626Z,103072.00
2019-02-22T10:48:35.188Z,103077.00
2019-02-22T10:51:06.663Z,103072.00
2019-02-22T10:53:38.357Z,103083.00
2019-02-22T10:56:09.938Z,103074.00
2019-02-22T10:58:41.429Z,103086.00
2019-02-22T11:01:13.049Z,103088.00
2019-02-22T11:03:44.558Z,103085.00
2019-02-22T11:06:16.091Z,103075.00
2019-02-22T11:08:47.563Z,103078.00
2019-02-22T11:11:18.883Z,103088.00
2019-02-22T11:13:50.402Z,103088.00
2019-02-22T11:16:24.436Z,103092.00
2019-02-22T11:18:55.907Z,103087.00
2019-02-22T11:21:27.640Z,103089.00
2019-02-22T11:23:59.126Z,103092.00
2019-02-22T11:26:30.931Z,103101.00
2019-02-22T11:29:02.604Z,103101.00
2019-02-22T11:31:37.004Z,103102.00
2019-02-22T11:34:11.069Z,103107.00
2019-02-22T11:36:43.835Z,103103.00
2019-02-22T11:39:15.352Z,103097.00
2019-02-22T11:41:47.119Z,103105.00
2019-02-22T11:44:18.603Z,103115.00
2019-02-22T11:46:50.096Z,103120.00
2019-02-22T11:49:21.618Z,103110.00
2019-02-22T11:51:55.278Z,103102.00
2019-02-22T11:54:26.286Z,103105.00
2019-02-22T11:56:57.758Z,103116.00
2019-02-22T11:59:29.382Z,103105.00
2019-02-22T12:02:00.961Z,103107.00
2019-02-22T12:04:32.498Z,103103.00
2019-02-22T12:07:05.923Z,103101.00
2019-02-22T12:09:39.671Z,103113.00
2019-02-22T12:12:11.528Z,103121.00
2019-02-22T12:14:51.077Z,103123.00
2019-02-22T12:17:19.636Z,103128.00
2019-02-22T12:19:51.104Z,103129.00
2019-02-22T12:22:22.758Z,103131.00
2019-02-22T12:24:54.302Z,103138.00
2019-02-22T12:27:25.888Z,103120.00
2019-02-22T12:29:57.409Z,103128.00
2019-02-22T12:32:29.027Z,103135.00
2019-02-22T12:35:00.504Z,103133.00
2019-02-22T12:37:31.993Z,103135.00
2019-02-22T12:40:03.508Z,103137.00
2019-02-22T12:42:35.012Z,103141.00
2019-02-22T12:45:07.744Z,103144.00
2019-02-22T12:47:39.316Z,103144.00
2019-02-22T12:50:11.152Z,103135.00
2019-02-22T12:52:43.282Z,103147.00
2019-02-22T12:55:28.150Z,103143.00
2019-02-22T12:58:01.101Z,103155.00
2019-02-22T13:00:33.810Z,103161.00
2019-02-22T13:03:05.397Z,103162.00
2019-02-22T13:05:36.999Z,103172.00
2019-02-22T13:08:08.629Z,103184.00
2019-02-22T13:10:40.194Z,103181.00
2019-02-22T13:13:12.770Z,103185.00
2019-02-22T13:15:44.368Z,103186.00
2019-02-22T13:18:15.806Z,103178.00
2019-02-22T13:20:49.269Z,103179.00
2019-02-22T13:23:20.903Z,103180.00
2019-02-22T13:25:52.588Z,103172.00
2019-02-22T13:28:24.130Z,103170.00
2019-02-22T13:30:56.671Z,103159.00
2019-02-22T13:33:28.226Z,103159.00
2019-02-22T13:35:59.701Z,103154.00
2019-02-22T13:38:31.270Z,103159.00
2019-02-22T13:41:02.924Z,103158.00
2019-02-22T13:43:34.391Z,103165.00
2019-02-22T13:46:06.200Z,103164.00
2019-02-22T13:48:37.729Z,103175.00
2019-02-22T13:51:09.607Z,103174.00
2019-02-22T13:53:41.056Z,103171.00
2019-02-22T13:56:12.515Z,103169.00
2019-02-22T13:58:44.035Z,103162.00
2019-02-22T14:01:17.382Z,103175.00
2019-02-22T14:03:48.944Z,103182.00
2019-02-22T14:06:21.841Z,103183.00
2019-02-22T14:08:53.327Z,103183.00
2019-02-22T14:11:25.857Z,103185.00
2019-02-22T14:13:57.799Z,103192.00
2019-02-22T14:16:31.005Z,103186.00
2019-02-22T14:19:02.831Z,103186.00
2019-02-22T14:21:40.279Z,103187.00
2019-02-22T14:24:11.935Z,103195.00
2019-02-22T14:26:43.395Z,103199.00
2019-02-22T14:29:15.117Z,103203.00
2019-02-22T14:31:46.581Z,103203.00
2019-02-22T14:34:18.143Z,103202.00
2019-02-22T14:36:49.631Z,103205.00
2019-02-22T14:39:21.167Z,103202.00
2019-02-22T14:42:03.400Z,103184.00
2019-02-22T14:44:35.597Z,103198.00
2019-02-22T14:47:07.559Z,103197.00
2019-02-22T14:49:39.217Z,103192.00
2019-02-22T14:52:12.787Z,103197.00
2019-02-22T14:54:44.614Z,103190.00
2019-02-22T14:57:16.136Z,103203.00
2019-02-22T14:59:52.919Z,103206.00
2019-02-22T15:02:24.371Z,103211.00
2019-02-22T15:04:56.704Z,103209.00
2019-02-22T15:07:32.723Z,103210.00
2019-02-22T15:10:04.779Z,103207.00
2019-02-22T15:12:37.068Z,103212.00
2019-02-22T15:15:10.468Z,103207.00
2019-02-22T15:17:48.480Z,103210.00
2019-02-22T15:20:20.041Z,103211.00
2019-02-22T15:22:51.539Z,103215.00
2019-02-22T15:25:23.053Z,103218.00
2019-02-22T15:27:54.751Z,103223.00
2019-02-22T15:30:26.202Z,103224.00
2019-02-22T15:32:57.670Z,103225.00
2019-02-22T15:35:29.221Z,103225.00
2019-02-22T15:38:02.208Z,103219.00
2019-02-22T15:40:34.060Z,103229.00
2019-02-22T15:43:07.281Z,103224.00
2019-02-22T15:45:39.846Z,103217.00
2019-02-22T15:48:11.456Z,103221.00
2019-02-22T15:50:47.143Z,103219.00
2019-02-22T15:53:20.603Z,103230.00
2019-02-22T15:55:52.294Z,103235.00
2019-02-22T15:58:23.791Z,103237.00
2019-02-22T16:00:55.344Z,103244.00
2019-02-22T16:03:28.692Z,103243.00
2019-02-22T16:06:00.163Z,103247.00
2019-02-22T16:08:31.623Z,103239.00
2019-02-22T16:11:03.123Z,103234.00
2019-02-22T16:13:34.694Z,103248.00
2019-02-22T16:16:06.233Z,103265.00
2019-02-22T16:18:37.851Z,103272.00
2019-02-22T16:21:09.305Z,103274.00
2019-02-22T16:23:43.189Z,103279.00
2019-02-22T16:26:17.155Z,103265.00
2019-02-22T16:28:48.650Z,103253.00
2019-02-22T16:31:24.803Z,103256.00
2019-02-22T16:34:06.108Z,103261.00
2019-02-22T16:36:37.784Z,103278.00
2019-02-22T16:39:09.238Z,103285.00
2019-02-22T16:41:43.379Z,103282.00
2019-02-22T16:44:14.932Z,103288.00
2019-02-22T16:46:46.676Z,103279.00
2019-02-22T16:49:18.225Z,103285.00
2019-02-22T16:51:49.830Z,103286.00
2019-02-22T16:54:21.449Z,103290.00
2019-02-22T16:56:54.818Z,103285.00
2019-02-22T16:59:26.401Z,103285.00
2019-02-22T17:01:58.023Z,103285.00
2019-02-22T17:04:29.632Z,103276.00
2019-02-22T17:07:01.351Z,103285.00
2019-02-22T17:09:33.357Z,103302.00
2019-02-22T17:12:06.713Z,103310.00
2019-02-22T17:14:38.218Z,103308.00
2019-02-22T17:17:09.732Z,103318.00
2019-02-22T17:19:42.602Z,103321.00
2019-02-22T17:22:14.168Z,103313.00
2019-02-22T17:24:48.414Z,103313.00
2019-02-22T17:27:20.084Z,103310.00
2019-02-22T17:29:51.564Z,103311.00
2019-02-22T17:32:23.052Z,103304.00
2019-02-22T17:34:55.614Z,103305.00
2019-02-22T17:37:27.320Z,103304.00
2019-02-22T17:39:59.683Z,103308.00
2019-02-22T17:42:31.616Z,103315.00
2019-02-22T17:45:03.480Z,103336.00
2019-02-22T17:47:35.439Z,103343.00
2019-02-22T17:50:07.710Z,103347.00
2019-02-22T17:52:39.508Z,103349.00
2019-02-22T17:55:11.364Z,103349.00
2019-02-22T17:57:43.084Z,103355.00
2019-02-22T18:00:17.889Z,103363.00
2019-02-22T18:02:49.409Z,103362.00
2019-02-22T18:05:21.029Z,103359.00
2019-02-22T18:07:52.600Z,103360.00
2019-02-22T18:10:25.950Z,103362.00
2019-02-22T18:12:57.617Z,103350.00
2019-02-22T18:15:29.104Z,103355.00
2019-02-22T18:18:02.204Z,103349.00
2019-02-22T18:20:33.916Z,103348.00
2019-02-22T18:23:05.496Z,103352.00
2019-02-22T18:25:37.050Z,103358.00
2019-02-22T18:28:08.913Z,103360.00
2019-02-22T18:30:40.624Z,103362.00
2019-02-22T18:33:12.517Z,103357.00
2019-02-22T18:35:44.208Z,103364.00
2019-02-22T18:38:15.754Z,103356.00
2019-02-22T18:40:47.250Z,103360.00
2019-02-22T18:43:18.834Z,103365.00
2019-02-22T18:45:50.306Z,103371.00
2019-02-22T18:48:24.176Z,103374.00
2019-02-22T18:50:56.956Z,103368.00
2019-02-22T18:53:28.596Z,103366.00
2019-02-22T18:56:01.675Z,103365.00
2019-02-22T18:58:34.226Z,103361.00
2019-02-22T19:01:05.730Z,103353.00
2019-02-22T19:03:37.225Z,103354.00
2019-02-22T19:06:09.135Z,103350.00
2019-02-22T19:08:42.063Z,103320.00
2019-02-22T19:11:17.343Z,103339.00
2019-02-22T19:13:49.092Z,103341.00
2019-02-22T19:16:20.705Z,103352.00
2019-02-22T19:18:52.353Z,103360.00
2019-02-22T19:21:24.027Z,103361.00
2019-02-22T19:23:55.570Z,103356.00
2019-02-22T19:26:27.072Z,103339.00
2019-02-22T19:28:58.617Z,103346.00
2019-02-22T19:31:30.148Z,103354.00
2019-02-22T19:34:01.815Z,103362.00
2019-02-22T19:36:33.489Z,103350.00
2019-02-22T19:39:06.251Z,103359.00
2019-02-22T19:41:39.243Z,103349.00
2019-02-22T19:44:11.774Z,103365.00
2019-02-22T19:46:45.559Z,103368.00
2019-02-22T19:49:20.219Z,103369.00
2019-02-22T19:51:52.578Z,103390.00
2019-02-22T19:54:24.490Z,103394.00
2019-02-22T19:56:56.128Z,103416.00
2019-02-22T19:59:27.790Z,103412.00
2019-02-22T20:01:59.335Z,103398.00
2019-02-22T20:04:32.583Z,103389.00
2019-02-22T20:07:04.214Z,103389.00
2019-02-22T20:09:35.796Z,103387.00
2019-02-22T20:12:07.292Z,103389.00
2019-02-22T20:14:38.859Z,103395.00
2019-02-22T20:17:10.369Z,103386.00
2019-02-22T20:19:41.876Z,103376.00
2019-02-22T20:22:14.433Z,103384.00
2019-02-22T20:24:46.016Z,103388.00
2019-02-22T20:27:17.588Z,103393.00
2019-02-22T20:29:49.147Z,103396.00
2019-02-22T20:32:20.757Z,103391.00
2019-02-22T20:34:52.383Z,103390.00
2019-02-22T20:37:28.115Z,103396.00
2019-02-22T20:40:00.317Z,103393.00
2019-02-22T20:42:34.816Z,103388.00
2019-02-22T20:45:06.881Z,103408.00
2019-02-22T20:47:38.521Z,103396.00
2019-02-22T20:50:11.529Z,103395.00
2019-02-22T20:52:43.028Z,103400.00
2019-02-22T20:55:14.606Z,103396.00
2019-02-22T20:57:46.127Z,103390.00
2019-02-22T21:00:19.026Z,103384.00
2019-02-22T21:02:50.517Z,103385.00
2019-02-22T21:05:22.070Z,103378.00
2019-02-22T21:07:53.649Z,103396.00
2019-02-22T21:10:26.004Z,103401.00
2019-02-22T21:12:57.792Z,103416.00
2019-02-22T21:15:29.396Z,103435.00
2019-02-22T21:18:03.782Z,103401.00
2019-02-22T21:20:36.527Z,103412.00
2019-02-22T21:23:10.048Z,103408.00
2019-02-22T21:25:45.818Z,103404.00
2019-02-22T21:28:24.634Z,103427.00
2019-02-22T21:30:56.309Z,103448.00
2019-02-22T21:33:31.263Z,103437.00
2019-02-22T21:36:03.236Z,103441.00
2019-02-22T21:38:40.200Z,103449.00
2019-02-22T21:41:16.457Z,103460.00
2019-02-22T21:43:48.332Z,103465.00
2019-02-22T21:46:20.717Z,103464.00
2019-02-22T21:48:55.419Z,103454.00
2019-02-22T21:51:27.411Z,103461.00
2019-02-22T21:53:59.289Z,103458.00
2019-02-22T21:56:31.242Z,103473.00
2019-02-22T21:59:03.119Z,103474.00
2019-02-22T22:01:36.512Z,103478.00
2019-02-22T22:04:09.799Z,103490.00
2019-02-22T22:06:43.358Z,103498.00
2019-02-22T22:09:15.480Z,103492.00
2019-02-22T22:11:47.865Z,103511.00
2019-02-22T22:14:24.872Z,103512.00
2019-02-22T22:16:58.201Z,103510.00
2019-02-22T22:19:32.206Z,103517.00
2019-02-22T22:22:06.768Z,103507.00
2019-02-22T22:24:38.307Z,103512.00
2019-02-22T22:27:11.534Z,103513.00
2019-02-22T22:29:46.387Z,103504.00
2019-02-22T22:32:18.450Z,103495.00
2019-02-22T22:35:02.674Z,103508.00
2019-02-22T22:37:53.861Z,103502.00
2019-02-22T22:40:28.591Z,103505.00
2019-02-22T22:43:00.147Z,103514.00
2019-02-22T22:45:34.262Z,103516.00
2019-02-22T22:48:06.451Z,103514.00
2019-02-22T22:50:39.459Z,103518.00
2019-02-22T22:53:11.445Z,103524.00
2019-02-22T22:55:43.362Z,103517.00
2019-02-22T22:58:15.354Z,103517.00
2019-02-22T23:01:08.950Z,103520.00
2019-02-22T23:03:41.425Z,103522.00
2019-02-22T23:06:17.373Z,103518.00
2019-02-22T23:08:50.344Z,103512.00
2019-02-22T23:11:25.611Z,103506.00
2019-02-22T23:13:57.372Z,103512.00
2019-02-22T23:16:33.214Z,103508.00
2019-02-22T23:19:14.840Z,103509.00
2019-02-22T23:21:59.482Z,103520.00
2019-02-22T23:24:43.763Z,103503.00
2019-02-22T23:27:34.630Z,103499.00
2019-02-22T23:30:06.742Z,103494.00
2019-02-22T23:32:38.637Z,103491.00
2019-02-22T23:35:14.336Z,103491.00
2019-02-22T23:37:46.311Z,103492.00
2019-02-22T23:40:17.852Z,103489.00
2019-02-22T23:42:49.364Z,103481.00
2019-02-22T23:45:20.901Z,103495.00
2019-02-22T23:47:52.478Z,103499.00
2019-02-22T23:50:24.212Z,103506.00
2019-02-22T23:53:00.329Z,103508.00
2019-02-22T23:55:33.490Z,103504.00
2019-02-22T23:58:05.369Z,103497.00
